createdAt,value
2022-08-01T00:01:59.343Z,54.40
2022-08-01T00:04:25.983Z,55.12
2022-08-01T00:06:52.515Z,55.01
2022-08-01T00:09:24.204Z,54.16
2022-08-01T00:12:06.585Z,55.68
2022-08-01T00:14:33.128Z,54.69
2022-08-01T00:17:03.940Z,55.69
2022-08-01T00:19:33.964Z,55.90
2022-08-01T00:22:00.621Z,55.46
2022-08-01T00:24:27.165Z,54.96
2022-08-01T00:26:53.668Z,55.38
2022-08-01T00:30:11.410Z,55.91
2022-08-01T00:32:07.310Z,55.54
2022-08-01T00:34:34.558Z,55.67
2022-08-01T00:37:01.163Z,56.77
2022-08-01T00:39:27.656Z,55.64
2022-08-01T00:41:59.632Z,55.50
2022-08-01T00:44:27.244Z,55.23
2022-08-01T00:46:53.902Z,56.34
2022-08-01T00:49:20.550Z,56.97
2022-08-01T00:51:47.225Z,56.23
2022-08-01T00:54:16.818Z,56.46
2022-08-01T00:56:43.882Z,56.61
2022-08-01T00:59:10.574Z,56.62
2022-08-01T01:01:39.544Z,55.99
2022-08-01T01:04:08.550Z,56.59
2022-08-01T01:06:42.287Z,56.53
2022-08-01T01:09:17.441Z,57.08
2022-08-01T01:12:12.732Z,57.34
2022-08-01T01:14:56.280Z,56.38
2022-08-01T01:17:49.424Z,57.12
2022-08-01T01:20:16.467Z,56.94
2022-08-01T01:22:49.357Z,57.03
2022-08-01T01:25:40.213Z,57.05
2022-08-01T01:28:10.076Z,57.41
2022-08-01T01:30:38.398Z,57.34
2022-08-01T01:33:07.223Z,57.78
2022-08-01T01:35:36.744Z,57.95
2022-08-01T01:38:10.515Z,58.11
2022-08-01T01:40:37.947Z,58.04
2022-08-01T01:43:05.737Z,58.48
2022-08-01T01:45:32.871Z,58.68
2022-08-01T01:47:59.855Z,59.14
2022-08-01T01:50:28.816Z,58.54
2022-08-01T01:52:56.234Z,58.98
2022-08-01T01:55:23.131Z,58.93
2022-08-01T01:57:51.214Z,59.48
2022-08-01T02:00:17.896Z,59.96
2022-08-01T02:02:45.643Z,59.54
2022-08-01T02:05:13.792Z,59.87
2022-08-01T02:07:41.325Z,60.11
2022-08-01T02:10:09.701Z,59.83
2022-08-01T02:12:39.121Z,60.26
2022-08-01T02:15:06.571Z,61.00
2022-08-01T02:17:38.882Z,60.10
2022-08-01T02:20:06.467Z,60.14
2022-08-01T02:22:42.095Z,60.35
2022-08-01T02:25:32.460Z,60.33
2022-08-01T02:28:28.217Z,61.01
2022-08-01T02:30:59.715Z,61.09
2022-08-01T02:33:37.317Z,60.61
2022-08-01T02:36:31.474Z,60.97
2022-08-01T02:38:51.540Z,61.57
2022-08-01T02:41:20.708Z,61.72
2022-08-01T02:43:53.085Z,61.39
2022-08-01T02:46:28.099Z,61.66
2022-08-01T02:48:56.807Z,62.08
2022-08-01T02:51:24.540Z,61.78
2022-08-01T02:53:51.434Z,61.57
2022-08-01T02:56:18.845Z,61.63
2022-08-01T02:58:45.979Z,61.45
2022-08-01T03:01:13.387Z,61.75
2022-08-01T03:03:40.384Z,61.82
2022-08-01T03:06:07.675Z,62.33
2022-08-01T03:08:36.057Z,62.39
2022-08-01T03:11:03.017Z,62.67
2022-08-01T03:13:30.477Z,62.97
2022-08-01T03:15:57.343Z,62.86
2022-08-01T03:18:26.057Z,63.04
2022-08-01T03:20:55.450Z,62.99
2022-08-01T03:23:22.334Z,63.14
2022-08-01T03:26:04.207Z,62.81
2022-08-01T03:28:31.284Z,63.58
2022-08-01T03:30:59.368Z,63.69
2022-08-01T03:33:25.962Z,63.91
2022-08-01T03:35:54.747Z,63.97
2022-08-01T03:38:24.593Z,63.78
2022-08-01T03:41:04.092Z,64.09
2022-08-01T03:43:37.704Z,64.13
2022-08-01T03:46:09.000Z,63.79
2022-08-01T03:48:39.480Z,64.53
2022-08-01T03:51:06.670Z,64.54
2022-08-01T03:53:33.527Z,64.08
2022-08-01T03:56:01.804Z,64.22
2022-08-01T03:58:29.932Z,64.39
2022-08-01T04:00:57.130Z,64.42
2022-08-01T04:03:24.533Z,64.62
2022-08-01T04:05:51.496Z,64.71
2022-08-01T04:08:18.016Z,65.19
2022-08-01T04:10:44.570Z,64.73
2022-08-01T04:13:11.088Z,64.83
2022-08-01T04:15:37.682Z,64.99
2022-08-01T04:18:04.250Z,65.05
2022-08-01T04:20:30.824Z,64.74
2022-08-01T04:22:57.296Z,64.96
2022-08-01T04:25:31.059Z,65.17
2022-08-01T04:27:58.313Z,64.75
2022-08-01T04:30:27.667Z,64.91
2022-08-01T04:32:55.789Z,65.31
2022-08-01T04:36:03.006Z,64.95
2022-08-01T04:38:13.731Z,65.23
2022-08-01T04:40:42.084Z,65.16
2022-08-01T04:43:08.713Z,65.22
2022-08-01T04:45:36.140Z,65.04
2022-08-01T04:48:03.031Z,65.17
2022-08-01T04:50:29.658Z,64.98
2022-08-01T04:52:56.948Z,65.22
2022-08-01T04:55:23.448Z,65.25
2022-08-01T04:57:50.074Z,65.13
2022-08-01T05:00:20.171Z,65.30
2022-08-01T05:02:47.560Z,65.63
2022-08-01T05:05:14.102Z,65.28
2022-08-01T05:07:45.101Z,65.66
2022-08-01T05:10:12.533Z,65.91
2022-08-01T05:12:39.038Z,65.85
2022-08-01T05:15:11.736Z,66.22
2022-08-01T05:17:43.053Z,66.30
2022-08-01T05:20:10.550Z,65.95
2022-08-01T05:22:37.501Z,65.99
2022-08-01T05:25:05.866Z,65.96
2022-08-01T05:27:32.630Z,66.33
2022-08-01T05:30:00.587Z,66.27
2022-08-01T05:32:28.150Z,66.26
2022-08-01T05:34:54.700Z,65.72
2022-08-01T05:37:21.452Z,66.50
2022-08-01T05:39:47.935Z,66.42
2022-08-01T05:42:14.471Z,66.44
2022-08-01T05:44:41.005Z,65.69
2022-08-01T05:47:07.589Z,66.06
2022-08-01T05:49:34.254Z,65.63
2022-08-01T05:52:02.947Z,65.23
2022-08-01T05:54:29.926Z,65.13
2022-08-01T05:57:00.496Z,65.55
2022-08-01T05:59:27.325Z,65.74
2022-08-01T06:01:53.925Z,66.31
2022-08-01T06:04:20.565Z,66.39
2022-08-01T06:06:47.493Z,66.66
2022-08-01T06:09:14.130Z,66.82
2022-08-01T06:11:40.671Z,67.31
2022-08-01T06:14:07.226Z,66.65
2022-08-01T06:16:33.673Z,65.51
2022-08-01T06:19:00.241Z,65.76
2022-08-01T06:21:26.792Z,66.07
2022-08-01T06:23:53.317Z,65.63
2022-08-01T06:26:20.306Z,65.72
2022-08-01T06:28:46.912Z,65.67
2022-08-01T06:31:14.711Z,66.21
2022-08-01T06:33:41.228Z,66.25
2022-08-01T06:36:07.717Z,66.10
2022-08-01T06:38:34.272Z,65.54
2022-08-01T06:41:00.784Z,65.06
2022-08-01T06:43:27.448Z,65.53
2022-08-01T06:45:54.016Z,65.25
2022-08-01T06:48:20.536Z,64.79
2022-08-01T06:50:47.049Z,65.20
2022-08-01T06:53:13.615Z,64.67
2022-08-01T06:55:40.197Z,64.61
2022-08-01T06:58:06.675Z,64.04
2022-08-01T07:00:33.199Z,63.96
2022-08-01T07:03:00.529Z,63.73
2022-08-01T07:05:27.224Z,63.72
2022-08-01T07:07:53.836Z,64.01
2022-08-01T07:10:20.416Z,64.06
2022-08-01T07:12:46.909Z,64.29
2022-08-01T07:15:13.563Z,63.06
2022-08-01T07:17:41.402Z,61.73
2022-08-01T07:20:10.543Z,62.66
2022-08-01T07:22:37.985Z,62.76
2022-08-01T07:25:06.814Z,61.85
2022-08-01T07:27:33.838Z,61.01
2022-08-01T07:30:00.346Z,60.04
2022-08-01T07:32:26.932Z,62.11
2022-08-01T07:34:53.412Z,61.82
2022-08-01T07:37:47.869Z,62.10
2022-08-01T07:40:06.984Z,61.84
2022-08-01T07:42:33.514Z,63.11
2022-08-01T07:45:00.106Z,60.75
2022-08-01T07:47:27.053Z,60.87
2022-08-01T07:50:00.312Z,61.44
2022-08-01T07:52:27.936Z,62.56
2022-08-01T07:54:54.602Z,61.62
2022-08-01T07:57:21.036Z,62.08
2022-08-01T07:59:47.747Z,61.19
2022-08-01T08:02:14.457Z,59.90
2022-08-01T08:04:44.584Z,60.12
2022-08-01T08:07:13.560Z,60.35
2022-08-01T08:09:40.039Z,61.20
2022-08-01T08:12:07.659Z,60.77
2022-08-01T08:14:34.875Z,61.01
2022-08-01T08:17:01.854Z,60.04
2022-08-01T08:19:37.570Z,60.73
2022-08-01T08:22:04.866Z,59.93
2022-08-01T08:24:31.593Z,58.74
2022-08-01T08:27:00.399Z,59.50
2022-08-01T08:29:28.220Z,59.84
2022-08-01T08:31:55.791Z,60.33
2022-08-01T08:34:23.547Z,59.91
2022-08-01T08:36:50.308Z,58.63
2022-08-01T08:39:17.649Z,59.39
2022-08-01T08:41:49.100Z,60.09
2022-08-01T08:44:17.136Z,59.96
2022-08-01T08:46:53.337Z,60.43
2022-08-01T08:49:22.532Z,58.89
2022-08-01T08:51:50.820Z,59.39
2022-08-01T08:54:19.072Z,59.14
2022-08-01T08:56:46.642Z,58.98
2022-08-01T08:59:14.821Z,58.13
2022-08-01T09:01:42.295Z,58.71
2022-08-01T09:04:08.824Z,57.33
2022-08-01T09:06:35.392Z,58.23
2022-08-01T09:09:01.923Z,58.07
2022-08-01T09:11:29.076Z,57.32
2022-08-01T09:14:05.608Z,58.15
2022-08-01T09:16:32.973Z,56.98
2022-08-01T09:19:15.988Z,56.56
2022-08-01T09:22:00.485Z,56.49
2022-08-01T09:24:30.479Z,57.00
2022-08-01T09:26:58.293Z,57.18
2022-08-01T09:29:37.773Z,56.90
2022-08-01T09:32:08.397Z,55.77
2022-08-01T09:34:40.738Z,56.56
2022-08-01T09:37:08.073Z,56.74
2022-08-01T09:39:41.052Z,55.88
2022-08-01T09:42:29.171Z,56.62
2022-08-01T09:44:56.152Z,56.74
2022-08-01T09:47:23.366Z,56.84
2022-08-01T09:49:59.113Z,56.41
2022-08-01T09:52:28.969Z,56.65
2022-08-01T09:55:05.341Z,56.11
2022-08-01T09:57:31.882Z,57.06
2022-08-01T10:00:01.389Z,55.97
2022-08-01T10:02:31.398Z,56.27
2022-08-01T10:05:03.332Z,57.48
2022-08-01T10:07:42.986Z,56.64
2022-08-01T10:10:14.954Z,55.76
2022-08-01T10:12:45.220Z,56.12
2022-08-01T10:15:14.282Z,57.07
2022-08-01T10:17:51.037Z,56.98
2022-08-01T10:20:29.933Z,56.29
2022-08-01T10:23:00.226Z,56.19
2022-08-01T10:25:42.208Z,55.91
2022-08-01T10:28:24.188Z,54.54
2022-08-01T10:30:52.157Z,55.12
2022-08-01T10:33:50.487Z,54.24
2022-08-01T10:36:09.664Z,55.00
2022-08-01T10:38:37.304Z,54.76
2022-08-01T10:41:06.395Z,54.16
2022-08-01T10:43:35.504Z,54.15
2022-08-01T10:46:03.527Z,53.65
2022-08-01T10:49:08.566Z,53.12
2022-08-01T10:51:52.871Z,53.71
2022-08-01T10:54:25.768Z,53.35
2022-08-01T10:56:52.938Z,52.84
2022-08-01T10:59:49.378Z,53.21
2022-08-01T11:02:12.317Z,52.71
2022-08-01T11:04:41.670Z,52.67
2022-08-01T11:07:25.672Z,52.77
2022-08-01T11:10:14.943Z,53.46
2022-08-01T11:12:43.903Z,52.82
2022-08-01T11:15:10.517Z,51.30
2022-08-01T11:17:42.828Z,51.37
2022-08-01T11:20:15.277Z,50.93
2022-08-01T11:23:05.016Z,51.72
2022-08-01T11:26:06.755Z,51.96
2022-08-01T11:28:32.147Z,53.35
2022-08-01T11:31:11.873Z,53.29
2022-08-01T11:33:40.601Z,51.37
2022-08-01T11:36:12.992Z,51.93
2022-08-01T11:38:46.978Z,52.35
2022-08-01T11:41:13.344Z,50.24
2022-08-01T11:44:02.149Z,52.31
2022-08-01T11:46:57.769Z,51.78
2022-08-01T11:49:48.961Z,52.78
2022-08-01T11:52:30.572Z,50.92
2022-08-01T11:55:03.010Z,51.74
2022-08-01T11:57:34.155Z,50.51
2022-08-01T12:00:24.523Z,50.70
2022-08-01T12:03:05.531Z,48.45
2022-08-01T12:05:34.704Z,50.43
2022-08-01T12:08:01.882Z,50.51
2022-08-01T12:10:36.910Z,50.46
2022-08-01T12:13:14.163Z,51.10
2022-08-01T12:15:40.716Z,50.36
2022-08-01T12:18:07.904Z,50.27
2022-08-01T12:20:40.124Z,49.41
2022-08-01T12:23:12.064Z,50.14
2022-08-01T12:25:44.658Z,48.55
2022-08-01T12:28:14.381Z,48.69
2022-08-01T12:30:41.262Z,47.72
2022-08-01T12:33:09.786Z,48.21
2022-08-01T12:35:37.815Z,49.93
2022-08-01T12:38:14.726Z,50.23
2022-08-01T12:40:45.370Z,49.72
2022-08-01T12:43:27.403Z,48.96
2022-08-01T12:45:57.769Z,48.97
2022-08-01T12:48:25.571Z,49.43
2022-08-01T12:50:58.213Z,50.71
2022-08-01T12:53:24.837Z,49.43
2022-08-01T12:55:58.092Z,49.95
2022-08-01T12:58:32.139Z,49.24
2022-08-01T13:01:12.961Z,50.50
2022-08-01T13:03:40.590Z,49.35
2022-08-01T13:06:15.932Z,47.85
2022-08-01T13:08:43.181Z,47.85
2022-08-01T13:11:14.925Z,48.42
2022-08-01T13:13:42.481Z,47.16
2022-08-01T13:16:13.510Z,49.19
2022-08-01T13:18:54.959Z,49.79
2022-08-01T13:21:21.431Z,49.55
2022-08-01T13:24:12.280Z,50.35
2022-08-01T13:26:38.653Z,47.60
2022-08-01T13:29:06.471Z,49.04
2022-08-01T13:31:34.448Z,48.81
2022-08-01T13:34:00.941Z,50.34
2022-08-01T13:36:32.026Z,48.84
2022-08-01T13:39:18.141Z,49.30
2022-08-01T13:41:45.349Z,48.88
2022-08-01T13:44:12.117Z,48.67
2022-08-01T13:46:39.545Z,50.15
2022-08-01T13:49:16.769Z,49.24
2022-08-01T13:51:43.886Z,48.91
2022-08-01T13:54:10.532Z,49.17
2022-08-01T13:56:37.074Z,48.95
2022-08-01T13:59:03.904Z,50.71
2022-08-01T14:01:34.260Z,50.87
2022-08-01T14:04:01.232Z,49.67
2022-08-01T14:06:27.798Z,49.60
2022-08-01T14:08:54.389Z,49.19
2022-08-01T14:11:21.434Z,49.75
2022-08-01T14:13:48.061Z,48.62
2022-08-01T14:16:15.066Z,48.42
2022-08-01T14:18:44.248Z,48.16
2022-08-01T14:21:11.236Z,49.62
2022-08-01T14:23:37.920Z,48.26
2022-08-01T14:26:09.976Z,48.41
2022-08-01T14:28:39.920Z,48.43
2022-08-01T14:31:09.719Z,48.34
2022-08-01T14:33:37.358Z,48.35
2022-08-01T14:36:28.506Z,48.26
2022-08-01T14:38:51.467Z,47.58
2022-08-01T14:41:17.936Z,49.52
2022-08-01T14:43:44.497Z,49.53
2022-08-01T14:46:11.360Z,49.79
2022-08-01T14:48:37.921Z,48.34
2022-08-01T14:51:05.172Z,47.89
2022-08-01T14:53:34.346Z,49.09
2022-08-01T14:56:03.708Z,48.57
2022-08-01T14:58:30.264Z,47.76
2022-08-01T15:00:59.231Z,48.16
2022-08-01T15:03:26.272Z,48.67
2022-08-01T15:05:52.800Z,48.16
2022-08-01T15:08:19.352Z,49.08
2022-08-01T15:10:45.814Z,48.16
2022-08-01T15:13:12.342Z,50.20
2022-08-01T15:15:38.941Z,49.35
2022-08-01T15:18:05.630Z,49.53
2022-08-01T15:20:32.190Z,50.73
2022-08-01T15:22:58.778Z,49.57
2022-08-01T15:25:25.315Z,50.65
2022-08-01T15:28:06.827Z,48.29
2022-08-01T15:30:34.144Z,47.83
2022-08-01T15:33:00.681Z,49.37
2022-08-01T15:35:27.201Z,46.20
2022-08-01T15:37:53.697Z,47.99
2022-08-01T15:40:20.251Z,46.65
2022-08-01T15:42:46.836Z,47.82
2022-08-01T15:45:44.574Z,46.20
2022-08-01T15:48:05.681Z,48.97
2022-08-01T15:50:32.261Z,46.60
2022-08-01T15:52:58.731Z,49.34
2022-08-01T15:55:25.297Z,48.88
2022-08-01T15:57:51.798Z,46.36
2022-08-01T16:00:18.395Z,48.13
2022-08-01T16:02:44.883Z,48.52
2022-08-01T16:05:11.455Z,46.68
2022-08-01T16:07:38.085Z,46.68
2022-08-01T16:10:24.660Z,48.40
2022-08-01T16:12:51.180Z,47.29
2022-08-01T16:15:17.816Z,48.43
2022-08-01T16:17:44.679Z,46.61
2022-08-01T16:20:11.514Z,49.37
2022-08-01T16:22:38.118Z,47.33
2022-08-01T16:25:05.333Z,47.39
2022-08-01T16:27:31.905Z,47.39
2022-08-01T16:29:58.413Z,48.16
2022-08-01T16:32:28.279Z,47.88
2022-08-01T16:34:56.355Z,47.54
2022-08-01T16:37:22.828Z,47.50
2022-08-01T16:39:49.352Z,47.40
2022-08-01T16:42:15.855Z,47.89
2022-08-01T16:44:42.901Z,47.50
2022-08-01T16:47:09.734Z,48.41
2022-08-01T16:49:36.909Z,47.73
2022-08-01T16:52:03.858Z,47.89
2022-08-01T16:54:30.528Z,48.92
2022-08-01T16:57:07.561Z,50.16
2022-08-01T16:59:35.533Z,49.22
2022-08-01T17:02:08.663Z,49.81
2022-08-01T17:04:35.219Z,51.41
2022-08-01T17:07:01.830Z,50.07
2022-08-01T17:09:28.402Z,49.55
2022-08-01T17:11:54.950Z,49.46
2022-08-01T17:14:21.963Z,50.92
2022-08-01T17:16:48.530Z,49.44
2022-08-01T17:19:15.144Z,49.72
2022-08-01T17:21:42.374Z,50.75
2022-08-01T17:24:09.833Z,51.55
2022-08-01T17:26:36.453Z,51.56
2022-08-01T17:29:03.745Z,49.90
2022-08-01T17:31:30.328Z,49.39
2022-08-01T17:33:56.837Z,51.29
2022-08-01T17:36:23.558Z,50.15
2022-08-01T17:38:50.240Z,50.30
2022-08-01T17:41:17.257Z,50.10
2022-08-01T17:43:43.801Z,52.42
2022-08-01T17:46:10.298Z,49.16
2022-08-01T17:48:36.871Z,49.73
2022-08-01T17:51:03.695Z,49.81
2022-08-01T17:53:30.371Z,49.42
2022-08-01T17:55:58.768Z,49.46
2022-08-01T17:58:49.224Z,50.18
2022-08-01T18:01:14.596Z,50.23
2022-08-01T18:03:42.084Z,50.19
2022-08-01T18:06:10.153Z,51.89
2022-08-01T18:08:40.191Z,51.86
2022-08-01T18:11:06.748Z,51.98
2022-08-01T18:13:33.744Z,51.21
2022-08-01T18:16:00.636Z,51.52
2022-08-01T18:18:33.393Z,52.18
2022-08-01T18:21:01.470Z,51.40
2022-08-01T18:23:28.132Z,52.17
2022-08-01T18:25:54.751Z,54.05
2022-08-01T18:28:31.300Z,52.78
2022-08-01T18:30:59.568Z,53.20
2022-08-01T18:33:26.059Z,53.83
2022-08-01T18:35:53.671Z,51.97
2022-08-01T18:38:24.225Z,51.87
2022-08-01T18:40:51.521Z,54.02
2022-08-01T18:43:18.078Z,53.61
2022-08-01T18:45:44.786Z,53.65
2022-08-01T18:48:11.740Z,54.56
2022-08-01T18:50:39.414Z,54.66
2022-08-01T18:53:06.054Z,55.21
2022-08-01T18:55:32.624Z,55.57
2022-08-01T18:57:59.172Z,56.63
2022-08-01T19:00:25.639Z,55.37
2022-08-01T19:02:53.055Z,57.57
2022-08-01T19:05:19.725Z,57.15
2022-08-01T19:08:05.969Z,57.58
2022-08-01T19:10:33.581Z,56.92
2022-08-01T19:13:00.884Z,56.88
2022-08-01T19:15:27.551Z,57.77
2022-08-01T19:17:54.045Z,57.22
2022-08-01T19:20:20.706Z,57.79
2022-08-01T19:22:47.199Z,58.20
2022-08-01T19:25:15.573Z,56.87
2022-08-01T19:27:47.790Z,56.97
2022-08-01T19:30:14.391Z,54.91
2022-08-01T19:32:46.234Z,55.93
2022-08-01T19:35:16.905Z,56.55
2022-08-01T19:37:47.204Z,55.80
2022-08-01T19:40:26.969Z,56.93
2022-08-01T19:42:54.862Z,57.63
2022-08-01T19:45:21.622Z,57.82
2022-08-01T19:47:52.304Z,57.07
2022-08-01T19:50:23.694Z,57.42
2022-08-01T19:52:51.993Z,56.94
2022-08-01T19:55:18.885Z,56.94
2022-08-01T19:57:59.342Z,57.52
2022-08-01T20:00:37.384Z,57.84
2022-08-01T20:03:04.791Z,57.82
2022-08-01T20:05:31.387Z,57.46
2022-08-01T20:07:58.564Z,57.90
2022-08-01T20:10:25.255Z,57.89
2022-08-01T20:18:30.206Z,56.92
2022-08-01T20:20:57.597Z,57.68
2022-08-01T20:23:24.974Z,58.26
2022-08-01T20:25:52.947Z,58.54
2022-08-01T20:28:27.104Z,59.39
2022-08-01T20:30:56.808Z,61.24
2022-08-01T20:33:23.432Z,61.78
2022-08-01T20:35:53.204Z,62.33
2022-08-01T20:38:27.612Z,63.42
2022-08-01T20:40:58.454Z,63.93
2022-08-01T20:43:27.313Z,63.95
2022-08-01T20:45:54.058Z,64.32
2022-08-01T20:48:20.933Z,64.05
2022-08-01T20:51:07.727Z,63.89
2022-08-01T20:53:40.533Z,63.52
2022-08-01T20:56:14.963Z,63.75
2022-08-01T20:58:46.371Z,63.81
2022-08-01T21:01:18.568Z,64.38
2022-08-01T21:03:55.809Z,64.45
2022-08-01T21:06:27.022Z,64.23
2022-08-01T21:08:56.439Z,64.01
2022-08-01T21:11:24.039Z,63.56
2022-08-01T21:13:51.202Z,63.71
2022-08-01T21:16:25.186Z,63.68
2022-08-01T21:19:18.021Z,63.94
2022-08-01T21:21:45.023Z,64.69
2022-08-01T21:24:19.181Z,64.65
2022-08-01T21:26:46.408Z,65.00
2022-08-01T21:29:14.140Z,64.52
2022-08-01T21:31:41.563Z,65.18
2022-08-01T21:34:08.753Z,65.60
2022-08-01T21:36:36.111Z,65.06
2022-08-01T21:39:05.004Z,65.38
2022-08-01T21:42:03.294Z,65.57
2022-08-01T21:44:18.893Z,65.79
2022-08-01T21:46:48.523Z,65.84
2022-08-01T21:49:15.133Z,65.38
2022-08-01T21:51:52.125Z,65.73
2022-08-01T21:54:34.071Z,65.94
2022-08-01T21:57:28.188Z,66.62
2022-08-01T22:00:12.727Z,67.04
2022-08-01T22:03:01.908Z,67.74
2022-08-01T22:05:40.529Z,67.38
2022-08-01T22:08:24.236Z,67.18
2022-08-01T22:10:57.116Z,67.79
2022-08-01T22:13:23.756Z,68.20
2022-08-01T22:15:50.492Z,68.09
2022-08-01T22:18:17.176Z,67.96
2022-08-01T22:20:46.858Z,68.25
2022-08-01T22:23:13.934Z,68.46
2022-08-01T22:25:41.650Z,68.33
2022-08-01T22:28:10.233Z,68.36
2022-08-01T22:30:43.014Z,68.51
2022-08-01T22:33:16.617Z,69.11
2022-08-01T22:35:55.144Z,69.15
2022-08-01T22:38:24.078Z,69.33
2022-08-01T22:40:53.835Z,69.60
2022-08-01T22:43:34.360Z,69.92
2022-08-01T22:46:16.375Z,70.03
2022-08-01T22:48:51.337Z,69.78
2022-08-01T22:51:27.514Z,70.35
2022-08-01T22:54:02.054Z,70.78
2022-08-01T22:56:30.107Z,70.96
2022-08-01T22:58:59.551Z,71.57
2022-08-01T23:01:28.263Z,71.52
2022-08-01T23:03:57.442Z,71.31
2022-08-01T23:06:35.855Z,71.68
2022-08-01T23:09:02.827Z,72.01
2022-08-01T23:11:29.703Z,71.97
2022-08-01T23:13:56.397Z,72.24
2022-08-01T23:16:23.758Z,72.52
2022-08-01T23:18:50.609Z,72.64
2022-08-01T23:21:18.109Z,73.48
2022-08-01T23:23:44.768Z,73.46
2022-08-01T23:26:11.911Z,72.99
2022-08-01T23:28:42.100Z,73.12
2022-08-01T23:31:08.711Z,73.20
2022-08-01T23:33:35.250Z,73.20
2022-08-01T23:36:01.789Z,73.08
2022-08-01T23:38:28.366Z,72.95
2022-08-01T23:40:54.866Z,72.43
2022-08-01T23:43:21.444Z,72.87
2022-08-01T23:46:03.205Z,72.94
2022-08-01T23:48:35.061Z,72.98
2022-08-01T23:51:02.600Z,73.01
2022-08-01T23:53:30.503Z,73.07
2022-08-01T23:55:58.281Z,72.91
2022-08-01T23:58:24.810Z,72.96
